Time;durP1;ratioP1;P1;durP2;ratioP2;P2;SDS_P1;SDS_P2;PMS_P1;PMS_P2;Temp;Humidity;BMP_temperature;BMP_pressure;BME280_temperature;BME280_humidity;BME280_pressure;Samples;Min_cycle;Max_cycle;Signal;HPM_P1;HPM_P2
2022/12/06 00:01:25;;;;;;;;;19.25;16.25;;;;;18.79;31.97;101585.06;5058374;28;45341;-42
2022/12/06 00:03:53;;;;;;;;;17.50;16.50;;;;;18.79;32.21;101585.06;5058383;28;45249;-44
2022/12/06 00:06:21;;;;;;;;;17.00;14.50;;;;;18.77;32.17;101581.63;5058704;28;45196;-44
2022/12/06 00:08:47;;;;;;;;;17.50;17.50;;;;;18.78;32.01;101578.09;5058120;28;45605;-44
2022/12/06 00:11:18;;;;;;;;;17.00;15.50;;;;;18.77;32.04;101571.13;5058198;28;45974;-45
2022/12/06 00:13:44;;;;;;;;;17.50;16.50;;;;;18.76;31.94;101573.78;5058354;28;45331;-43
2022/12/06 00:16:12;;;;;;;;;17.25;16.25;;;;;18.76;32.20;101577.28;5058674;28;45593;-42
2022/12/06 00:18:39;;;;;;;;;16.75;16.75;;;;;18.76;32.14;101569.41;5058140;28;46619;-45
2022/12/06 00:21:17;;;;;;;;;20.50;17.50;;;;;18.76;31.98;101566.78;5058280;28;45822;-43
2022/12/06 00:23:45;;;;;;;;;17.00;17.00;;;;;18.77;32.26;101570.25;5058225;28;45463;-46
2022/12/06 00:26:12;;;;;;;;;16.00;15.25;;;;;18.80;31.84;101565.75;5058267;28;45316;-43
2022/12/06 00:28:38;;;;;;;;;15.25;14.25;;;;;18.82;31.96;101563.91;5057908;28;45385;-44
2022/12/06 00:31:09;;;;;;;;;19.25;16.75;;;;;18.87;32.20;101560.28;5058229;28;45934;-43
2022/12/06 00:33:36;;;;;;;;;17.75;15.25;;;;;18.91;32.31;101553.97;5058319;28;45293;-48
2022/12/06 00:36:05;;;;;;;;;15.00;15.00;;;;;18.96;31.86;101549.47;5058441;28;45338;-44
2022/12/06 00:38:30;;;;;;;;;17.75;16.00;;;;;18.99;32.05;101544.94;5058253;28;45450;-44
2022/12/06 00:41:04;;;;;;;;;18.50;14.50;;;;;19.04;32.13;101547.41;5057735;28;45326;-43
2022/12/06 00:43:31;;;;;;;;;14.75;13.75;;;;;19.08;32.10;101549.00;5057767;28;45241;-46
2022/12/06 00:45:56;;;;;;;;;15.75;14.00;;;;;19.12;31.97;101550.63;5056720;28;45364;-45
2022/12/06 00:48:22;;;;;;;;;18.75;14.25;;;;;19.15;31.92;101553.09;5057482;28;45433;-44
2022/12/06 00:50:47;;;;;;;;;18.50;15.75;;;;;19.18;32.07;101543.41;5039608;28;45582;-44
2022/12/06 00:53:12;;;;;;;;;15.50;14.50;;;;;19.21;32.09;101545.91;5057873;28;45324;-44
2022/12/06 00:55:38;;;;;;;;;17.75;15.00;;;;;19.26;31.76;101538.69;5057956;28;45165;-46
2022/12/06 00:58:03;;;;;;;;;15.75;13.25;;;;;19.27;31.93;101543.03;5057833;28;45409;-45
2022/12/06 01:00:29;;;;;;;;;14.00;13.00;;;;;19.30;31.92;101545.56;5057522;28;45318;-46
2022/12/06 01:02:56;;;;;;;;;17.75;16.00;;;;;19.32;31.91;101546.34;5057609;28;45503;-47
2022/12/06 01:05:22;;;;;;;;;17.00;17.00;;;;;19.33;32.22;101550.69;5057796;28;45360;-46
2022/12/06 01:07:47;;;;;;;;;17.50;16.50;;;;;19.33;31.90;101542.81;5057238;28;45489;-45
2022/12/06 01:10:13;;;;;;;;;16.25;14.50;;;;;19.36;31.74;101545.31;5038966;28;45381;-44
2022/12/06 01:12:38;;;;;;;;;20.25;15.00;;;;;19.38;31.61;101542.63;5056439;28;45442;-42
2022/12/06 01:15:04;;;;;;;;;18.25;15.25;;;;;19.38;31.63;101551.34;5057771;28;45500;-46
2022/12/06 01:17:29;;;;;;;;;15.50;14.50;;;;;19.39;31.57;101547.81;5057261;28;45451;-44
2022/12/06 01:19:54;;;;;;;;;15.33;14.00;;;;;19.39;31.46;101539.94;5056738;28;58403;-43
2022/12/06 01:22:19;;;;;;;;;14.33;14.33;;;;;19.41;31.71;101545.13;5057095;28;45308;-45
2022/12/06 01:24:46;;;;;;;;;19.00;17.00;;;;;19.41;32.05;101539.84;5057270;28;45323;-46
2022/12/06 01:27:11;;;;;;;;;18.25;16.50;;;;;19.40;31.79;101544.28;5057078;28;46454;-44
2022/12/06 01:29:36;;;;;;;;;16.00;16.00;;;;;19.43;31.85;101545.91;5056823;28;55677;-43
2022/12/06 01:32:02;;;;;;;;;16.00;15.50;;;;;19.40;31.82;101532.91;5057025;28;45185;-45
2022/12/06 01:34:27;;;;;;;;;18.50;16.50;;;;;19.42;31.49;101539.81;5057320;28;45595;-45
2022/12/06 01:36:53;;;;;;;;;15.75;15.00;;;;;19.43;31.87;101540.66;5055432;28;48211;-44
2022/12/06 01:39:19;;;;;;;;;19.00;15.00;;;;;19.44;31.38;101542.38;5055545;28;45270;-45
2022/12/06 01:41:44;;;;;;;;;19.50;17.00;;;;;19.41;31.86;101535.47;5039009;28;45589;-43
2022/12/06 01:44:43;;;;;;;;;16.00;14.75;;;;;19.44;31.66;101545.88;5056857;28;45382;-45
2022/12/06 01:47:17;;;;;;;;;18.50;16.75;;;;;19.42;31.57;101536.31;5056982;28;45437;-46
2022/12/06 01:49:48;;;;;;;;;18.50;15.50;;;;;19.42;31.11;101537.19;5056761;28;45299;-44
2022/12/06 01:52:14;;;;;;;;;16.75;16.25;;;;;19.42;31.34;101544.19;5056914;28;45379;-48
2022/12/06 01:54:39;;;;;;;;;18.25;15.25;;;;;19.42;31.46;101545.06;5057244;28;45182;-42
2022/12/06 01:57:09;;;;;;;;;20.25;16.00;;;;;19.41;31.33;101540.72;5056776;28;45863;-42
2022/12/06 01:59:35;;;;;;;;;18.00;15.50;;;;;19.42;31.37;101539.81;5056707;28;45374;-44
2022/12/06 02:02:01;;;;;;;;;18.50;16.75;;;;;19.40;31.58;101541.66;5056695;28;45338;-45
2022/12/06 02:04:27;;;;;;;;;16.75;15.50;;;;;19.40;31.24;101546.91;5056798;28;45354;-46
2022/12/06 02:06:54;;;;;;;;;17.50;15.00;;;;;19.40;31.74;101538.19;5056490;28;46073;-43
2022/12/06 02:09:21;;;;;;;;;14.00;14.00;;;;;19.38;31.56;101543.47;5056376;28;45540;-45
2022/12/06 02:11:46;;;;;;;;;16.25;16.25;;;;;19.38;31.71;101550.50;5056653;28;45410;-42
2022/12/06 02:14:16;;;;;;;;;14.25;14.00;;;;;19.37;31.71;101552.28;5056802;28;45522;-42
2022/12/06 02:17:07;;;;;;;;;15.00;14.25;;;;;19.37;31.58;101548.81;5056341;28;45304;-42
2022/12/06 02:19:57;;;;;;;;;10.00;7.00;;;;;19.36;31.55;101552.34;5038021;28;45753;-45
2022/12/06 02:22:32;;;;;;;;;16.25;16.25;;;;;19.35;31.29;101542.75;5055979;28;45251;-50
2022/12/06 02:25:15;;;;;;;;;18.00;15.25;;;;;19.35;31.50;101553.25;5056399;28;45213;-46
2022/12/06 02:27:52;;;;;;;;;17.00;16.25;;;;;19.33;31.68;101558.59;5056172;28;45327;-45
2022/12/06 02:30:39;;;;;;;;;18.50;16.50;;;;;19.33;31.55;101552.47;5054865;28;45804;-44
2022/12/06 02:33:17;;;;;;;;;18.25;15.50;;;;;19.31;31.43;101549.91;5056188;28;45189;-45
2022/12/06 02:35:50;;;;;;;;;16.00;15.00;;;;;19.29;31.26;101552.56;5054874;28;45415;-43
2022/12/06 02:38:24;;;;;;;;;18.00;15.50;;;;;19.29;31.59;101551.72;5038166;28;46478;-49
2022/12/06 02:40:58;;;;;;;;;18.75;16.00;;;;;19.29;31.78;101554.34;5056129;28;45432;-45
2022/12/06 02:43:31;;;;;;;;;16.50;14.50;;;;;19.27;31.73;101545.66;5056061;28;45226;-43
2022/12/06 02:46:01;;;;;;;;;15.25;15.25;;;;;19.25;32.03;101542.22;5056384;28;45283;-44
2022/12/06 02:48:26;;;;;;;;;20.00;16.25;;;;;19.26;31.92;101546.56;5055790;28;46243;-43
2022/12/06 02:50:57;;;;;;;;;20.50;15.00;;;;;19.24;31.47;101537.88;5055868;28;45445;-45
2022/12/06 02:53:26;;;;;;;;;15.75;15.00;;;;;19.24;31.32;101538.75;5056146;28;45220;-46
2022/12/06 02:55:52;;;;;;;;;8.00;8.00;;;;;19.21;31.49;101536.25;5056228;28;45341;-43
2022/12/06 02:58:18;;;;;;;;;16.25;15.25;;;;;19.20;31.84;101531.06;5055836;28;46392;-44
2022/12/06 03:00:49;;;;;;;;;13.50;12.25;;;;;19.19;31.54;101534.59;5056383;28;45475;-49
2022/12/06 03:03:32;;;;;;;;;18.25;17.00;;;;;19.15;31.87;101539.97;5056060;28;45182;-41
2022/12/06 03:06:00;;;;;;;;;11.50;8.00;;;;;19.14;32.00;101537.41;5056279;28;45251;-49
2022/12/06 03:08:51;;;;;;;;;16.75;12.50;;;;;19.12;31.95;101545.34;5054365;28;48031;-48
2022/12/06 03:11:17;;;;;;;;;16.25;15.50;;;;;19.09;31.65;101541.97;5055521;28;45339;-44
2022/12/06 03:14:03;;;;;;;;;15.50;15.50;;;;;19.09;31.65;101545.47;5056229;28;45246;-45
2022/12/06 03:16:28;;;;;;;;;16.50;16.25;;;;;19.08;31.66;101546.38;5055614;28;45249;-45
2022/12/06 03:19:10;;;;;;;;;16.33;12.33;;;;;19.07;31.59;101542.03;5055510;28;46096;-46
2022/12/06 03:21:41;;;;;;;;;17.50;15.25;;;;;19.07;32.06;101546.44;5037249;28;45894;-46
2022/12/06 03:24:11;;;;;;;;;11.25;7.00;;;;;19.06;31.67;101548.19;5055778;28;45296;-47
2022/12/06 03:26:37;;;;;;;;;16.00;15.50;;;;;19.06;31.78;101542.94;5055822;28;45618;-44
2022/12/06 03:29:08;;;;;;;;;17.50;16.50;;;;;19.07;31.77;101549.06;5055243;28;46223;-46
2022/12/06 03:31:37;;;;;;;;;19.75;15.25;;;;;19.06;32.00;101548.19;5055511;28;45345;-45
2022/12/06 03:34:18;;;;;;;;;16.75;13.50;;;;;19.06;31.95;101545.56;5055438;28;45331;-46
2022/12/06 03:36:46;;;;;;;;;15.50;13.50;;;;;19.05;31.81;101545.66;5059554;28;45449;-44
2022/12/06 03:39:15;;;;;;;;;21.25;18.75;;;;;19.05;31.98;101538.59;5058958;28;46379;-45
2022/12/06 03:41:50;;;;;;;;;16.75;14.00;;;;;19.04;31.85;101544.78;5058817;28;45418;-46
2022/12/06 03:44:16;;;;;;;;;17.25;16.00;;;;;19.03;31.93;101545.69;5058854;28;45446;-48
2022/12/06 03:46:47;;;;;;;;;15.25;15.00;;;;;19.05;31.80;101549.09;5059199;28;45530;-43
2022/12/06 03:49:19;;;;;;;;;18.00;15.50;;;;;19.04;32.02;101547.41;5040438;28;48503;-44
2022/12/06 03:51:45;;;;;;;;;20.25;15.25;;;;;19.03;31.72;101545.69;5058849;28;45967;-43
2022/12/06 03:54:11;;;;;;;;;13.50;11.50;;;;;19.03;32.10;101543.06;5058786;28;45221;-42
2022/12/06 03:56:38;;;;;;;;;15.50;15.00;;;;;19.02;31.83;101543.97;5058684;28;45427;-45
2022/12/06 03:59:04;;;;;;;;;13.25;13.00;;;;;19.00;31.85;101533.53;5058430;28;46185;-43
2022/12/06 04:01:30;;;;;;;;;15.50;15.50;;;;;19.00;31.95;101536.16;5058604;28;45957;-44
2022/12/06 04:03:55;;;;;;;;;18.75;16.00;;;;;18.99;32.10;101541.47;5058313;28;45363;-45
2022/12/06 04:06:20;;;;;;;;;17.00;15.33;;;;;18.99;31.98;101539.69;5058550;28;45462;-44
2022/12/06 04:08:46;;;;;;;;;20.33;15.33;;;;;18.98;31.72;101540.59;5058393;28;46074;-45
2022/12/06 04:11:12;;;;;;;;;16.50;13.50;;;;;18.96;31.90;101539.78;5058234;28;45323;-44
2022/12/06 04:13:37;;;;;;;;;15.75;15.25;;;;;18.99;31.76;101549.34;5058440;28;45506;-45
2022/12/06 04:16:03;;;;;;;;;18.50;16.00;;;;;18.98;31.97;101543.22;5058605;28;45514;-42
2022/12/06 04:18:28;;;;;;;;;16.25;15.50;;;;;18.97;31.84;101541.50;5040225;28;46331;-44
2022/12/06 04:23:50;;;;;;;;;17.00;16.25;;;;;18.97;31.77;101543.28;5058590;28;45541;-43
2022/12/06 04:26:21;;;;;;;;;16.00;15.25;;;;;18.96;32.24;101544.22;5058647;28;45221;-44
2022/12/06 04:39:44;;;;;;;;;18.25;14.50;;;;;18.92;32.26;101538.19;5057768;28;45311;-44
2022/12/06 04:44:54;;;;;;;;;16.25;15.25;;;;;18.91;31.98;101535.59;5057755;28;45314;-45
2022/12/06 04:47:19;;;;;;;;;17.50;14.50;;;;;18.90;32.06;101534.75;5058135;28;45479;-45
2022/12/06 04:49:47;;;;;;;;;16.50;16.50;;;;;18.90;31.77;101529.50;5057737;28;45248;-41
2022/12/06 04:52:13;;;;;;;;;15.50;13.50;;;;;18.89;32.34;101527.78;5057591;28;45815;-44
2022/12/06 04:54:40;;;;;;;;;17.50;16.25;;;;;18.91;32.36;101527.72;5057842;28;45406;-44
2022/12/06 04:57:10;;;;;;;;;17.50;16.25;;;;;18.93;31.94;101526.81;5057834;28;45380;-43
2022/12/06 04:59:40;;;;;;;;;17.00;16.50;;;;;18.96;32.33;101528.44;5057452;28;46232;-42
2022/12/06 05:02:08;;;;;;;;;22.50;18.25;;;;;18.99;32.16;101523.94;5039661;28;45486;-45
2022/12/06 05:04:34;;;;;;;;;19.00;15.75;;;;;19.03;32.15;101529.06;5057597;28;45368;-44
2022/12/06 05:06:59;;;;;;;;;18.25;16.00;;;;;19.05;32.05;101517.59;5057693;28;45561;-43
2022/12/06 05:09:25;;;;;;;;;16.75;14.50;;;;;19.09;31.86;101527.06;5039023;28;47582;-45
2022/12/06 05:11:50;;;;;;;;;17.00;15.00;;;;;19.12;32.22;101519.09;5057302;28;52922;-42
2022/12/06 05:14:15;;;;;;;;;15.50;14.25;;;;;19.16;32.25;101520.66;5057347;28;45340;-45
2022/12/06 05:16:41;;;;;;;;;19.50;16.00;;;;;19.18;32.44;101518.00;5057551;28;45540;-44
2022/12/06 05:19:06;;;;;;;;;12.50;12.50;;;;;19.23;32.05;101516.03;5057083;28;46284;-42
2022/12/06 05:21:32;;;;;;;;;14.75;13.75;;;;;19.25;32.14;101513.31;5057283;28;45435;-43
2022/12/06 05:23:57;;;;;;;;;20.00;18.25;;;;;19.29;32.26;101517.56;5057302;28;45431;-42
2022/12/06 05:26:25;;;;;;;;;20.00;17.25;;;;;19.31;32.30;101513.09;5057494;28;45298;-45
2022/12/06 05:28:52;;;;;;;;;15.50;14.00;;;;;19.35;32.28;101519.09;5057245;28;46715;-42
2022/12/06 05:31:18;;;;;;;;;18.25;16.50;;;;;19.37;32.23;101514.63;5057391;28;45253;-47
2022/12/06 05:33:45;;;;;;;;;18.00;15.50;;;;;19.39;31.71;101513.66;5057204;28;45268;-46
2022/12/06 05:36:18;;;;;;;;;20.50;16.50;;;;;19.39;32.19;101511.00;5057247;28;45526;-46
2022/12/06 05:38:48;;;;;;;;;16.50;16.50;;;;;19.40;32.19;101504.84;5056806;28;46062;-47
2022/12/06 05:41:13;;;;;;;;;18.00;16.25;;;;;19.41;32.20;101501.31;5057102;28;45976;-44
2022/12/06 05:43:39;;;;;;;;;18.25;16.75;;;;;19.43;32.23;101510.00;5056912;28;45772;-44
2022/12/06 05:46:05;;;;;;;;;16.75;14.25;;;;;19.44;32.12;101498.56;5057308;28;45459;-44
2022/12/06 05:48:31;;;;;;;;;18.00;16.50;;;;;19.47;31.76;101502.81;5056670;28;46616;-44
2022/12/06 05:50:56;;;;;;;;;16.50;14.25;;;;;19.49;32.02;101494.88;5056589;28;45281;-47
2022/12/06 05:53:21;;;;;;;;;17.00;15.75;;;;;19.49;31.83;101502.75;5039019;28;45395;-43
2022/12/06 05:55:48;;;;;;;;;18.25;17.00;;;;;19.50;31.82;101501.84;5056998;28;45217;-44
2022/12/06 05:58:14;;;;;;;;;19.75;17.00;;;;;19.51;31.63;101508.81;5055719;28;46208;-45
2022/12/06 06:00:39;;;;;;;;;29.50;14.75;;;;;19.51;31.57;101508.81;5056752;28;45713;-43
2022/12/06 06:03:05;;;;;;;;;16.00;14.75;;;;;19.50;31.88;101507.97;5056594;28;45464;-47
2022/12/06 06:05:30;;;;;;;;;17.50;14.50;;;;;19.51;32.07;101507.06;5055557;28;45606;-47
2022/12/06 06:07:56;;;;;;;;;18.00;17.25;;;;;19.49;31.90;101503.63;5056105;28;46285;-43
2022/12/06 06:10:22;;;;;;;;;12.00;11.75;;;;;19.50;31.75;101501.84;5056705;28;45458;-47
2022/12/06 06:12:47;;;;;;;;;18.75;16.75;;;;;19.49;32.03;101503.63;5056612;28;45341;-45
2022/12/06 06:15:14;;;;;;;;;17.75;15.25;;;;;19.49;31.95;101508.00;5056596;28;45485;-45
2022/12/06 06:17:39;;;;;;;;;20.25;18.75;;;;;19.49;31.98;101508.00;5056181;28;46356;-45
2022/12/06 06:20:06;;;;;;;;;17.25;15.50;;;;;19.49;31.51;101510.63;5056322;28;45456;-44
2022/12/06 06:22:34;;;;;;;;;21.00;17.25;;;;;19.48;31.74;101515.06;5056376;28;45415;-45
2022/12/06 06:25:00;;;;;;;;;20.25;15.75;;;;;19.48;31.78;101515.06;5038498;28;45376;-46
2022/12/06 06:27:26;;;;;;;;;17.00;14.25;;;;;19.47;31.76;101514.19;5038590;28;48307;-46
2022/12/06 06:29:52;;;;;;;;;17.75;15.25;;;;;19.47;31.99;101515.97;5056413;28;45252;-45
2022/12/06 06:32:17;;;;;;;;;20.50;17.25;;;;;19.47;31.90;101518.59;5056384;28;45333;-44
2022/12/06 06:34:42;;;;;;;;;15.75;15.75;;;;;19.45;32.02;101510.78;5056407;28;45564;-45
2022/12/06 06:37:08;;;;;;;;;17.50;16.00;;;;;19.46;31.86;101522.16;5056062;28;45400;-47
2022/12/06 06:39:33;;;;;;;;;16.00;14.25;;;;;19.46;32.10;101516.88;5055978;28;47102;-42
2022/12/06 06:41:58;;;;;;;;;22.33;16.67;;;;;19.44;32.04;101513.47;5056053;28;45352;-46
2022/12/06 06:44:24;;;;;;;;;17.75;14.75;;;;;19.44;31.85;101518.72;5056435;28;45485;-42
2022/12/06 06:46:49;;;;;;;;;19.25;16.75;;;;;19.42;31.94;101523.16;5055958;28;46219;-42
2022/12/06 06:49:16;;;;;;;;;19.50;16.50;;;;;19.41;32.08;101526.72;5055836;28;45343;-45
2022/12/06 06:51:42;;;;;;;;;19.50;18.25;;;;;19.40;32.19;101527.66;5055935;28;45165;-45
2022/12/06 06:54:07;;;;;;;;;21.50;18.25;;;;;19.39;31.82;101526.78;5056158;28;45684;-44
2022/12/06 06:56:32;;;;;;;;;25.25;17.00;;;;;19.39;31.94;101524.16;5056030;28;46493;-44
2022/12/06 06:58:58;;;;;;;;;18.00;17.25;;;;;19.38;31.98;101529.50;5054561;28;45377;-42
2022/12/06 07:01:23;;;;;;;;;17.50;14.50;;;;;19.37;31.83;101523.34;5056193;28;45585;-45
2022/12/06 07:03:52;;;;;;;;;19.00;16.75;;;;;19.36;32.20;101526.91;5055973;28;45225;-44
2022/12/06 07:06:18;;;;;;;;;24.00;17.75;;;;;19.35;32.14;101530.44;5055494;28;46272;-41
2022/12/06 07:08:45;;;;;;;;;20.50;17.50;;;;;19.35;31.88;101524.34;5055540;28;45466;-45
2022/12/06 07:11:11;;;;;;;;;18.75;17.75;;;;;19.34;31.84;101520.88;5057583;28;45276;-46
2022/12/06 07:13:38;;;;;;;;;16.75;15.75;;;;;19.34;32.43;101528.75;5041448;28;45214;-47
2022/12/06 07:16:06;;;;;;;;;18.00;17.00;;;;;19.33;32.33;101524.41;5059031;28;45744;-42
2022/12/06 07:18:32;;;;;;;;;16.75;15.00;;;;;19.32;32.30;101525.31;5058494;28;45410;-46
2022/12/06 07:21:00;;;;;;;;;17.50;15.50;;;;;19.31;32.36;101519.19;5059400;28;45464;-43
2022/12/06 07:23:26;;;;;;;;;16.75;16.25;;;;;19.30;32.26;101516.63;5059621;28;45236;-46
2022/12/06 07:26:05;;;;;;;;;16.00;12.75;;;;;19.29;32.05;101514.94;5058854;28;46349;-46
2022/12/06 07:28:32;;;;;;;;;16.00;12.50;;;;;19.30;32.28;101516.63;5058869;28;45562;-44
2022/12/06 07:30:57;;;;;;;;;17.75;17.75;;;;;19.28;31.82;101514.09;5059297;28;45355;-47
2022/12/06 07:33:23;;;;;;;;;14.25;14.25;;;;;19.28;32.21;101513.22;5059033;28;45673;-48
2022/12/06 07:35:52;;;;;;;;;17.25;17.25;;;;;19.27;31.92;101525.50;5058754;28;46296;-44
2022/12/06 07:38:18;;;;;;;;;16.00;15.50;;;;;19.26;31.99;101520.28;5057580;28;45761;-46
2022/12/06 07:40:44;;;;;;;;;19.25;16.25;;;;;19.23;32.13;101520.44;5057732;28;45284;-42
2022/12/06 07:45:54;;;;;;;;;16.00;16.00;;;;;19.21;32.42;101517.00;5058667;28;45643;-43
2022/12/06 07:48:19;;;;;;;;;14.75;13.75;;;;;19.18;32.41;101517.13;5058636;28;45636;-46
2022/12/06 07:50:46;;;;;;;;;2.50;2.50;;;;;19.18;32.48;101522.38;5058874;28;45438;-42
2022/12/06 07:53:11;;;;;;;;;19.00;15.00;;;;;19.16;32.13;101518.03;5058881;28;45513;-44
2022/12/06 07:55:36;;;;;;;;;16.00;14.00;;;;;19.14;32.73;101511.13;5058499;28;45288;-43
2022/12/06 07:58:02;;;;;;;;;18.00;15.50;;;;;19.14;32.32;101511.97;5058562;28;45425;-44
2022/12/06 08:00:27;;;;;;;;;18.75;17.25;;;;;19.13;32.40;101523.41;5058862;28;45470;-44
2022/12/06 08:02:52;;;;;;;;;15.75;15.00;;;;;19.12;32.50;101528.72;5058773;28;45380;-41
2022/12/06 08:05:18;;;;;;;;;17.67;14.67;;;;;19.12;32.31;101524.34;5058334;28;45343;-44
2022/12/06 08:07:43;;;;;;;;;17.00;15.50;;;;;19.10;32.45;101523.53;5058423;28;45529;-45
2022/12/06 08:10:09;;;;;;;;;16.25;15.50;;;;;19.10;32.46;101523.53;5058421;28;45408;-42
2022/12/06 08:12:35;;;;;;;;;17.25;16.00;;;;;19.09;32.37;101528.81;5058632;28;45253;-44
2022/12/06 08:15:00;;;;;;;;;15.75;11.50;;;;;19.10;32.57;101536.66;5058389;28;45415;-41
2022/12/06 08:17:26;;;;;;;;;15.50;14.50;;;;;19.11;32.39;101543.66;5058357;28;45324;-43
2022/12/06 08:19:52;;;;;;;;;16.25;15.75;;;;;19.09;32.42;101536.72;5057986;28;45415;-43
2022/12/06 08:22:17;;;;;;;;;17.75;16.00;;;;;19.08;32.32;101538.50;5058317;28;45446;-45
2022/12/06 08:24:42;;;;;;;;;15.00;13.25;;;;;19.10;32.45;101543.69;5057799;28;45426;-42
2022/12/06 08:27:08;;;;;;;;;15.75;13.25;;;;;19.09;32.31;101550.72;5058036;28;45236;-45
2022/12/06 08:29:33;;;;;;;;;14.50;12.75;;;;;19.10;32.40;101559.44;5057998;28;45423;-43
2022/12/06 08:31:58;;;;;;;;;18.25;16.50;;;;;19.08;32.52;101564.78;5058622;28;45216;-50
2022/12/06 08:34:24;;;;;;;;;18.75;15.75;;;;;19.07;32.63;101555.16;5057830;28;45189;-44
